createdAt,value
2019-04-06T00:00:59.842Z,45.03
2019-04-06T00:05:50.812Z,48.97
2019-04-06T00:10:41.732Z,46.07
2019-04-06T00:15:32.693Z,44.00
2019-04-06T00:20:23.602Z,47.47
2019-04-06T00:25:14.556Z,56.93
2019-04-06T00:30:05.429Z,51.80
2019-04-06T00:34:57.073Z,47.60
2019-04-06T00:39:47.965Z,47.25
2019-04-06T00:44:39.597Z,46.40
2019-04-06T00:49:30.496Z,47.93
2019-04-06T00:54:21.385Z,50.63
2019-04-06T00:59:12.282Z,43.27
2019-04-06T01:04:03.168Z,45.73
2019-04-06T01:08:54.063Z,49.95
2019-04-06T01:13:45.032Z,47.00
2019-04-06T01:18:35.890Z,44.60
2019-04-06T01:23:26.782Z,47.47
2019-04-06T01:28:17.697Z,57.40
2019-04-06T01:33:08.607Z,51.87
2019-04-06T01:37:59.643Z,44.60
2019-04-06T01:42:50.456Z,50.50
2019-04-06T01:47:41.406Z,49.67
2019-04-06T01:52:32.286Z,49.97
2019-04-06T01:57:23.260Z,48.63
2019-04-06T02:02:14.938Z,48.33
2019-04-06T02:07:05.831Z,47.77
2019-04-06T02:11:57.473Z,50.07
2019-04-06T02:16:49.097Z,49.83
2019-04-06T02:21:40.002Z,45.87
2019-04-06T02:26:31.431Z,46.28
2019-04-06T02:31:28.154Z,43.83
2019-04-06T02:36:21.888Z,40.67
2019-04-06T02:41:16.540Z,48.47
2019-04-06T02:46:07.439Z,45.50
2019-04-06T02:50:58.429Z,50.47
2019-04-06T02:55:49.358Z,45.28
2019-04-06T03:00:40.238Z,49.00
2019-04-06T03:05:31.138Z,53.93
2019-04-06T03:10:22.036Z,44.40
2019-04-06T03:15:12.995Z,45.40
2019-04-06T03:20:03.887Z,41.97
2019-04-06T03:24:54.792Z,46.90
2019-04-06T03:29:56.421Z,47.23
2019-04-06T03:34:37.352Z,47.57
2019-04-06T03:39:28.237Z,49.00
2019-04-06T03:44:19.887Z,45.37
2019-04-06T03:49:10.785Z,44.47
2019-04-06T03:54:03.236Z,46.63
2019-04-06T03:58:54.098Z,47.17
2019-04-06T04:03:45.020Z,45.87
2019-04-06T04:08:35.975Z,44.87
2019-04-06T04:13:26.894Z,42.90
2019-04-06T04:18:18.067Z,47.53
2019-04-06T04:23:08.714Z,43.97
2019-04-06T04:27:59.643Z,45.90
2019-04-06T04:32:50.527Z,46.60
2019-04-06T04:37:41.426Z,42.80
2019-04-06T04:42:33.344Z,46.60
2019-04-06T04:47:23.982Z,42.40
2019-04-06T04:52:15.641Z,47.43
2019-04-06T04:57:06.526Z,40.63
2019-04-06T05:01:58.278Z,40.27
2019-04-06T05:06:49.085Z,44.83
2019-04-06T05:11:40.735Z,35.80
2019-04-06T05:16:31.822Z,39.73
2019-04-06T05:21:22.946Z,36.87
2019-04-06T05:26:14.664Z,40.22
2019-04-06T05:31:05.677Z,41.17
2019-04-06T05:35:56.492Z,35.60
2019-04-06T05:40:47.564Z,36.63
2019-04-06T05:45:38.346Z,38.77
2019-04-06T05:50:29.232Z,34.33
2019-04-06T05:55:20.126Z,31.37
2019-04-06T06:00:11.481Z,31.90
2019-04-06T06:05:02.679Z,35.37
2019-04-06T06:09:53.574Z,33.07
2019-04-06T06:14:44.484Z,35.47
2019-04-06T06:19:35.378Z,32.50
2019-04-06T06:24:26.289Z,35.70
2019-04-06T06:29:17.189Z,33.07
2019-04-06T06:34:08.368Z,35.93
2019-04-06T06:38:59.005Z,34.80
2019-04-06T06:43:50.638Z,34.97
2019-04-06T06:48:43.147Z,30.00
2019-04-06T06:53:33.223Z,35.40
2019-04-06T06:58:25.651Z,29.93
2019-04-06T07:03:15.058Z,36.80
2019-04-06T07:08:06.074Z,34.78
2019-04-06T07:12:56.882Z,35.77
2019-04-06T07:17:47.777Z,30.40
2019-04-06T07:22:39.429Z,43.03
2019-04-06T07:27:30.338Z,27.30
2019-04-06T07:32:22.043Z,27.63
2019-04-06T07:37:13.152Z,25.60
2019-04-06T07:42:04.114Z,22.77
2019-04-06T07:46:54.985Z,35.83
2019-04-06T07:51:45.934Z,32.67
2019-04-06T07:56:38.991Z,27.70
2019-04-06T08:01:30.167Z,29.20
2019-04-06T08:06:21.039Z,24.23
2019-04-06T08:11:13.423Z,27.07
2019-04-06T08:16:05.295Z,32.08
2019-04-06T08:20:56.229Z,31.52
2019-04-06T08:25:47.161Z,38.73
2019-04-06T08:30:45.435Z,36.30
2019-04-06T08:35:28.973Z,26.57
2019-04-06T08:40:19.893Z,25.50
2019-04-06T08:45:10.802Z,26.50
2019-04-06T08:50:01.717Z,31.47
2019-04-06T08:54:52.756Z,32.78
2019-04-06T08:59:43.528Z,32.97
2019-04-06T09:04:35.217Z,22.87
2019-04-06T09:09:26.931Z,24.43
2019-04-06T09:14:17.840Z,26.30
2019-04-06T09:19:08.748Z,31.70
2019-04-06T09:23:59.651Z,29.77
2019-04-06T09:28:51.294Z,27.97
2019-04-06T09:33:42.217Z,23.03
2019-04-06T09:38:33.981Z,21.30
2019-04-06T09:43:24.769Z,23.53
2019-04-06T09:48:20.323Z,31.00
2019-04-06T09:53:11.999Z,33.23
2019-04-06T09:58:03.689Z,31.93
2019-04-06T10:02:56.641Z,24.37
2019-04-06T10:07:52.342Z,22.70
2019-04-06T10:12:43.224Z,26.77
2019-04-06T10:17:37.056Z,31.80
2019-04-06T10:22:31.069Z,29.00
2019-04-06T10:27:26.854Z,25.52
2019-04-06T10:32:22.681Z,27.57
2019-04-06T10:37:15.566Z,23.20
2019-04-06T10:42:06.454Z,19.10
2019-04-06T10:47:03.569Z,22.03
2019-04-06T10:52:01.125Z,37.90
2019-04-06T11:02:16.973Z,20.70
2019-04-06T11:07:14.709Z,18.70
2019-04-06T11:12:07.397Z,17.37
2019-04-06T11:17:00.161Z,26.43
2019-04-06T11:21:51.945Z,21.57
2019-04-06T11:26:48.857Z,18.53
2019-04-06T11:31:41.609Z,18.47
2019-04-06T11:36:34.609Z,17.50
2019-04-06T11:41:32.449Z,23.57
2019-04-06T11:46:26.427Z,19.73
2019-04-06T11:51:21.390Z,17.93
2019-04-06T11:56:13.035Z,17.03
2019-04-06T12:01:18.939Z,17.17
2019-04-06T12:06:15.733Z,16.07
2019-04-06T12:11:06.714Z,18.93
2019-04-06T12:16:02.673Z,18.60
2019-04-06T12:21:08.577Z,16.80
2019-04-06T12:26:10.510Z,16.97
2019-04-06T12:31:01.965Z,15.37
2019-04-06T12:35:52.871Z,18.27
2019-04-06T12:40:48.709Z,16.57
2019-04-06T12:45:46.094Z,18.17
2019-04-06T12:50:46.752Z,16.93
2019-04-06T12:55:41.449Z,16.30
2019-04-06T13:00:33.346Z,17.90
2019-04-06T13:05:28.495Z,17.77
2019-04-06T13:10:29.501Z,18.12
2019-04-06T13:15:20.453Z,19.00
2019-04-06T13:20:23.774Z,17.50
2019-04-06T13:25:19.573Z,17.70
2019-04-06T13:30:12.335Z,18.77
2019-04-06T13:35:04.247Z,19.73
2019-04-06T13:40:02.259Z,17.37
2019-04-06T13:44:52.948Z,17.60
2019-04-06T13:49:43.841Z,16.73
2019-04-06T13:54:35.534Z,17.30
2019-04-06T13:59:26.444Z,17.90
2019-04-06T14:04:19.277Z,17.17
2019-04-06T14:14:30.574Z,16.40
2019-04-06T14:24:43.169Z,18.45
2019-04-06T14:29:39.884Z,17.20
2019-04-06T14:34:30.786Z,17.80
2019-04-06T14:39:26.649Z,15.20
2019-04-06T14:49:37.992Z,16.65
2019-04-06T14:59:58.887Z,14.25
2019-04-06T15:04:55.793Z,13.77
2019-04-06T15:15:10.489Z,14.45
2019-04-06T15:20:06.870Z,16.70
2019-04-06T15:25:04.760Z,14.13
2019-04-06T15:29:55.493Z,13.77
2019-04-06T15:34:56.413Z,14.20
2019-04-06T15:39:48.165Z,15.43
2019-04-06T15:50:06.668Z,14.02
2019-04-06T15:55:18.003Z,14.57
2019-04-06T16:00:13.745Z,14.03
2019-04-06T16:05:07.556Z,15.52
2019-04-06T16:10:00.355Z,13.50
2019-04-06T16:14:58.618Z,14.03
2019-04-06T16:19:51.301Z,14.60
2019-04-06T16:24:44.246Z,11.77
2019-04-06T16:29:38.929Z,15.10
2019-04-06T16:34:30.770Z,13.68
2019-04-06T16:39:24.719Z,13.77
2019-04-06T16:44:17.944Z,14.53
2019-04-06T16:54:29.220Z,12.60
2019-04-06T16:59:26.153Z,14.07
2019-04-06T17:04:20.723Z,15.13
2019-04-06T17:09:12.966Z,17.17
2019-04-06T17:19:23.259Z,13.02
2019-04-06T17:24:16.170Z,13.50
2019-04-06T17:29:10.625Z,14.40
2019-04-06T17:34:03.744Z,17.17
2019-04-06T17:38:57.801Z,15.10
2019-04-06T17:43:48.441Z,14.63
2019-04-06T17:48:42.292Z,15.50
2019-04-06T17:53:35.381Z,15.27
2019-04-06T17:58:29.435Z,15.68
2019-04-06T18:03:26.401Z,18.03
2019-04-06T18:08:17.997Z,15.85
2019-04-06T18:13:10.147Z,18.30
2019-04-06T18:18:01.391Z,17.73
2019-04-06T18:22:52.540Z,16.17
2019-04-06T18:27:43.237Z,15.60
2019-04-06T18:32:57.100Z,16.27
2019-04-06T18:37:42.331Z,15.60
2019-04-06T18:42:32.782Z,15.40
2019-04-06T18:47:24.173Z,15.13
2019-04-06T18:52:14.630Z,16.87
2019-04-06T18:57:06.009Z,16.07
2019-04-06T19:01:56.493Z,16.73
2019-04-06T19:06:47.648Z,15.50
2019-04-06T19:11:39.201Z,14.57
2019-04-06T19:16:30.089Z,15.00
2019-04-06T19:21:21.933Z,15.23
2019-04-06T19:26:12.834Z,15.27
2019-04-06T19:31:03.801Z,15.20
2019-04-06T19:35:54.730Z,15.02
2019-04-06T19:40:46.061Z,16.10
2019-04-06T19:45:37.096Z,15.00
2019-04-06T19:50:27.717Z,14.27
2019-04-06T19:55:19.101Z,15.95
2019-04-06T20:00:10.078Z,15.40
2019-04-06T20:05:02.017Z,16.10
2019-04-06T20:09:53.755Z,15.73
2019-04-06T20:14:45.009Z,15.47
2019-04-06T20:19:36.347Z,15.90
2019-04-06T20:24:27.457Z,19.10
2019-04-06T20:29:18.582Z,15.13
2019-04-06T20:34:10.775Z,15.52
2019-04-06T20:39:01.211Z,15.80
2019-04-06T20:43:53.369Z,13.90
2019-04-06T20:48:44.694Z,14.93
2019-04-06T20:53:36.419Z,16.65
2019-04-06T20:58:27.224Z,18.67
2019-04-06T21:03:18.125Z,15.32
2019-04-06T21:08:09.013Z,20.13
2019-04-06T21:13:00.659Z,12.37
2019-04-06T21:17:51.721Z,16.67
2019-04-06T21:22:43.143Z,15.63
2019-04-06T21:27:34.093Z,16.53
2019-04-06T21:32:24.389Z,17.73
2019-04-06T21:37:15.254Z,14.57
2019-04-06T21:42:06.248Z,15.20
2019-04-06T21:46:57.511Z,17.20
2019-04-06T21:51:48.622Z,15.68
2019-04-06T21:56:38.922Z,17.27
2019-04-06T22:01:30.553Z,16.27
2019-04-06T22:06:24.340Z,19.13
2019-04-06T22:11:13.101Z,13.00
2019-04-06T22:16:04.746Z,15.73
2019-04-06T22:20:56.865Z,21.37
2019-04-06T22:25:47.288Z,15.30
2019-04-06T22:30:39.488Z,17.98
2019-04-06T22:35:29.834Z,23.13
2019-04-06T22:40:20.756Z,15.00
2019-04-06T22:45:12.223Z,13.90
2019-04-06T22:50:03.933Z,16.23
2019-04-06T22:54:54.415Z,15.23
2019-04-06T22:59:45.843Z,14.17
2019-04-06T23:04:47.783Z,14.95
2019-04-06T23:09:29.089Z,13.93
2019-04-06T23:14:20.768Z,14.77
2019-04-06T23:19:10.977Z,18.23
2019-04-06T23:24:08.662Z,19.03
2019-04-06T23:28:59.905Z,17.07
2019-04-06T23:33:50.809Z,15.40
2019-04-06T23:38:43.024Z,15.43
2019-04-06T23:43:33.443Z,14.97
2019-04-06T23:48:25.786Z,17.60
2019-04-06T23:53:16.062Z,17.13
2019-04-06T23:58:07.355Z,15.40
